Time;durP1;ratioP1;P1;durP2;ratioP2;P2;SDS_P1;SDS_P2;PMS_P1;PMS_P2;Temp;Humidity;BMP_temperature;BMP_pressure;BME280_temperature;BME280_humidity;BME280_pressure;Samples;Min_cycle;Max_cycle;Signal;HPM_P1;HPM_P2
2022/11/10 00:01:00;;;;;;;;;;;24.20;42.90;;;;;;485057;246;1533;-74
2022/11/10 00:03:02;;;;;;;;;;;24.20;42.80;;;;;;485133;246;1158;-74
2022/11/10 00:05:03;;;;;;;;;;;24.30;42.80;;;;;;485171;246;1222;-74
2022/11/10 00:07:05;;;;;;;;;;;24.20;42.80;;;;;;485122;246;1121;-74
2022/11/10 00:09:06;;;;;;;;;;;24.20;42.90;;;;;;485019;246;1109;-74
2022/11/10 00:11:07;;;;;;;;;;;24.20;42.80;;;;;;485070;242;1340;-74
2022/11/10 00:13:09;;;;;;;;;;;24.30;42.90;;;;;;485085;244;1193;-74
2022/11/10 00:17:29;;;;;;;;;;;24.20;42.90;;;;;;485126;246;1257;-74
2022/11/10 00:19:30;;;;;;;;;;;24.20;42.90;;;;;;485092;246;2188;-74
2022/11/10 00:21:32;;;;;;;;;;;24.30;42.90;;;;;;485107;246;1204;-74
2022/11/10 00:23:33;;;;;;;;;;;24.30;42.70;;;;;;485074;246;1366;-74
2022/11/10 00:25:34;;;;;;;;;;;24.30;42.80;;;;;;485136;246;1153;-74
2022/11/10 00:27:36;;;;;;;;;;;24.30;42.80;;;;;;485158;246;1287;-74
2022/11/10 00:29:37;;;;;;;;;;;24.20;42.80;;;;;;485051;246;1201;-74
2022/11/10 00:31:38;;;;;;;;;;;24.30;42.70;;;;;;485102;246;1211;-74
2022/11/10 00:33:40;;;;;;;;;;;24.30;42.80;;;;;;485122;246;1234;-74
2022/11/10 00:35:41;;;;;;;;;;;24.30;42.80;;;;;;485059;246;1219;-74
2022/11/10 00:37:42;;;;;;;;;;;24.20;42.80;;;;;;485096;246;1288;-74
2022/11/10 00:39:44;;;;;;;;;;;24.20;42.80;;;;;;485074;246;2191;-74
2022/11/10 00:41:45;;;;;;;;;;;24.30;42.80;;;;;;485134;246;1227;-74
2022/11/10 00:43:46;;;;;;;;;;;24.30;42.80;;;;;;485166;246;1117;-74
2022/11/10 00:45:48;;;;;;;;;;;24.30;42.80;;;;;;485107;246;1157;-74
2022/11/10 00:47:49;;;;;;;;;;;24.30;42.80;;;;;;485127;246;1169;-74
2022/11/10 00:49:50;;;;;;;;;;;24.30;42.80;;;;;;485109;246;1137;-74
2022/11/10 00:51:51;;;;;;;;;;;24.20;42.80;;;;;;485136;246;1194;-74
2022/11/10 00:53:53;;;;;;;;;;;24.20;43.00;;;;;;485101;246;1148;-74
2022/11/10 00:55:54;;;;;;;;;;;24.20;43.00;;;;;;485175;246;1102;-74
2022/11/10 00:57:56;;;;;;;;;;;24.20;43.00;;;;;;485125;246;1145;-74
2022/11/10 00:59:57;;;;;;;;;;;24.10;43.00;;;;;;485105;246;2203;-74
2022/11/10 01:01:58;;;;;;;;;;;24.20;43.00;;;;;;485115;246;1315;-74
2022/11/10 01:03:59;;;;;;;;;;;24.20;43.00;;;;;;485151;246;1133;-74
2022/11/10 01:06:01;;;;;;;;;;;24.10;43.10;;;;;;485020;246;1307;-74
2022/11/10 01:08:02;;;;;;;;;;;24.20;43.10;;;;;;484799;246;1101;-74
2022/11/10 01:10:03;;;;;;;;;;;24.20;42.90;;;;;;484890;246;1139;-74
2022/11/10 01:12:05;;;;;;;;;;;24.20;43.10;;;;;;484992;246;1138;-74
2022/11/10 01:14:06;;;;;;;;;;;24.20;43.00;;;;;;484975;246;1122;-74
2022/11/10 01:16:07;;;;;;;;;;;24.20;42.90;;;;;;485103;246;1141;-74
2022/11/10 01:18:09;;;;;;;;;;;24.20;43.00;;;;;;485095;246;1311;-74
2022/11/10 01:20:10;;;;;;;;;;;24.20;43.10;;;;;;485072;246;2171;-74
2022/11/10 01:22:12;;;;;;;;;;;24.20;43.10;;;;;;485094;246;1118;-74
2022/11/10 01:24:13;;;;;;;;;;;24.20;43.10;;;;;;485143;246;1202;-74
2022/11/10 01:26:14;;;;;;;;;;;24.20;43.00;;;;;;485164;246;1186;-74
2022/11/10 01:28:16;;;;;;;;;;;24.30;42.90;;;;;;485040;246;1338;-74
2022/11/10 01:30:17;;;;;;;;;;;24.30;42.90;;;;;;485115;246;1232;-74
2022/11/10 01:32:18;;;;;;;;;;;24.20;42.90;;;;;;485158;246;1302;-74
2022/11/10 01:34:20;;;;;;;;;;;24.30;43.00;;;;;;485108;246;1307;-74
2022/11/10 01:36:21;;;;;;;;;;;24.20;43.00;;;;;;485115;246;1219;-74
2022/11/10 01:38:22;;;;;;;;;;;24.20;43.10;;;;;;485226;246;1192;-74
2022/11/10 01:40:24;;;;;;;;;;;24.20;43.10;;;;;;485157;242;2191;-74
2022/11/10 01:42:25;;;;;;;;;;;24.10;43.10;;;;;;485174;246;1182;-74
2022/11/10 01:44:26;;;;;;;;;;;24.20;43.10;;;;;;485233;246;1235;-74
2022/11/10 01:46:28;;;;;;;;;;;24.20;43.00;;;;;;485092;246;1195;-74
2022/11/10 01:48:29;;;;;;;;;;;24.10;43.10;;;;;;485199;246;1097;-74
2022/11/10 01:50:31;;;;;;;;;;;24.20;43.10;;;;;;485150;246;1112;-74
2022/11/10 01:52:32;;;;;;;;;;;24.20;43.10;;;;;;485148;246;1100;-74
2022/11/10 01:54:33;;;;;;;;;;;24.20;43.10;;;;;;485283;246;1018;-74
2022/11/10 01:56:35;;;;;;;;;;;24.20;43.00;;;;;;485148;246;1154;-74
2022/11/10 01:58:38;;;;;;;;;;;24.20;43.10;;;;;;485137;246;1162;-74
2022/11/10 02:00:37;;;;;;;;;;;24.20;43.10;;;;;;484996;246;2180;-74
2022/11/10 02:02:39;;;;;;;;;;;24.20;43.00;;;;;;485237;246;1170;-74
2022/11/10 02:04:40;;;;;;;;;;;24.20;43.00;;;;;;485168;246;1234;-74
2022/11/10 02:06:41;;;;;;;;;;;24.20;43.00;;;;;;485135;246;1205;-74
2022/11/10 02:08:43;;;;;;;;;;;24.30;43.00;;;;;;485115;246;1225;-74
2022/11/10 02:10:44;;;;;;;;;;;24.20;43.00;;;;;;485036;246;1167;-74
2022/11/10 02:12:45;;;;;;;;;;;24.20;43.10;;;;;;485074;246;1214;-74
2022/11/10 02:14:47;;;;;;;;;;;24.20;43.00;;;;;;485041;246;1230;-74
2022/11/10 02:16:48;;;;;;;;;;;24.20;43.00;;;;;;485116;246;1208;-74
2022/11/10 02:18:49;;;;;;;;;;;24.20;43.00;;;;;;485211;246;1187;-74
2022/11/10 02:20:51;;;;;;;;;;;24.20;43.00;;;;;;485119;246;2175;-74
2022/11/10 02:22:52;;;;;;;;;;;24.20;43.00;;;;;;485085;242;1263;-74
2022/11/10 02:24:53;;;;;;;;;;;24.30;43.00;;;;;;485116;244;1141;-74
2022/11/10 02:26:55;;;;;;;;;;;24.30;42.90;;;;;;485246;246;1134;-74
2022/11/10 02:28:56;;;;;;;;;;;24.30;43.00;;;;;;485192;246;1207;-74
2022/11/10 02:30:57;;;;;;;;;;;24.30;42.90;;;;;;485182;246;1277;-74
2022/11/10 02:32:59;;;;;;;;;;;24.20;43.00;;;;;;485154;246;1176;-74
2022/11/10 02:35:00;;;;;;;;;;;24.20;43.10;;;;;;485074;246;1320;-74
2022/11/10 02:37:02;;;;;;;;;;;24.20;43.10;;;;;;485095;242;1215;-74
2022/11/10 02:39:03;;;;;;;;;;;24.30;43.10;;;;;;485180;246;1427;-74
2022/11/10 02:41:04;;;;;;;;;;;24.30;43.10;;;;;;485086;246;2124;-74
2022/11/10 02:43:05;;;;;;;;;;;24.20;43.20;;;;;;485031;246;1172;-74
2022/11/10 02:45:07;;;;;;;;;;;24.10;43.10;;;;;;485114;246;1278;-74
2022/11/10 02:47:08;;;;;;;;;;;24.20;43.10;;;;;;485217;246;1205;-74
2022/11/10 02:49:09;;;;;;;;;;;24.20;43.00;;;;;;485108;246;1222;-74
2022/11/10 02:51:11;;;;;;;;;;;24.30;42.90;;;;;;485121;246;1124;-74
2022/11/10 02:53:12;;;;;;;;;;;24.20;42.90;;;;;;485166;246;1207;-74
2022/11/10 02:55:13;;;;;;;;;;;24.20;42.90;;;;;;485176;246;1138;-74
2022/11/10 02:57:15;;;;;;;;;;;24.20;42.90;;;;;;485088;246;1101;-74
2022/11/10 02:59:16;;;;;;;;;;;24.20;42.80;;;;;;485065;246;2191;-74
2022/11/10 03:01:17;;;;;;;;;;;24.20;42.80;;;;;;485210;246;1051;-74
2022/11/10 03:03:19;;;;;;;;;;;24.30;42.70;;;;;;485175;246;1129;-74
2022/11/10 03:05:20;;;;;;;;;;;24.10;42.70;;;;;;485221;246;1079;-74
2022/11/10 03:07:21;;;;;;;;;;;24.20;42.70;;;;;;485254;242;1297;-74
2022/11/10 03:09:23;;;;;;;;;;;24.20;42.60;;;;;;485186;246;1108;-74
2022/11/10 03:11:24;;;;;;;;;;;24.20;42.60;;;;;;485206;246;1189;-74
2022/11/10 03:13:25;;;;;;;;;;;24.20;42.60;;;;;;485122;246;1209;-74
2022/11/10 03:15:27;;;;;;;;;;;24.20;42.50;;;;;;485085;246;1110;-74
2022/11/10 03:17:28;;;;;;;;;;;24.20;42.60;;;;;;485117;246;1188;-74
2022/11/10 03:19:29;;;;;;;;;;;24.30;42.50;;;;;;485037;246;2187;-74
2022/11/10 03:21:30;;;;;;;;;;;24.30;42.30;;;;;;485098;246;1219;-74
2022/11/10 03:23:32;;;;;;;;;;;24.30;42.20;;;;;;485041;246;1290;-74
2022/11/10 03:25:33;;;;;;;;;;;24.30;42.10;;;;;;485083;246;1202;-74
2022/11/10 03:27:35;;;;;;;;;;;24.30;42.20;;;;;;485129;246;1165;-74
2022/11/10 03:29:36;;;;;;;;;;;24.30;42.20;;;;;;485034;246;1196;-74
2022/11/10 03:31:38;;;;;;;;;;;24.30;42.20;;;;;;485072;246;1197;-74
2022/11/10 03:33:39;;;;;;;;;;;24.20;42.10;;;;;;485124;246;1187;-74
2022/11/10 03:35:40;;;;;;;;;;;24.30;42.20;;;;;;485070;246;1208;-74
2022/11/10 03:37:42;;;;;;;;;;;24.30;42.30;;;;;;485067;246;1249;-74
2022/11/10 03:39:43;;;;;;;;;;;24.30;42.10;;;;;;485174;246;2168;-74
2022/11/10 03:41:44;;;;;;;;;;;24.30;42.10;;;;;;485178;246;1111;-74
2022/11/10 03:43:46;;;;;;;;;;;24.30;42.10;;;;;;485141;246;1248;-74
2022/11/10 03:45:47;;;;;;;;;;;24.30;42.10;;;;;;485110;246;1136;-74
2022/11/10 03:47:48;;;;;;;;;;;24.30;42.10;;;;;;485237;246;1091;-74
2022/11/10 03:49:50;;;;;;;;;;;24.30;42.00;;;;;;485017;246;1126;-74
2022/11/10 03:51:51;;;;;;;;;;;24.30;42.00;;;;;;485139;246;1413;-74
2022/11/10 03:53:52;;;;;;;;;;;24.40;42.00;;;;;;485205;246;1170;-74
2022/11/10 03:55:53;;;;;;;;;;;24.40;41.90;;;;;;485125;246;1345;-74
2022/11/10 03:57:55;;;;;;;;;;;24.40;41.80;;;;;;485180;246;1122;-74
2022/11/10 03:59:56;;;;;;;;;;;24.40;41.90;;;;;;485159;246;2160;-74
2022/11/10 04:01:57;;;;;;;;;;;24.50;41.90;;;;;;485100;246;1296;-74
2022/11/10 04:03:59;;;;;;;;;;;24.40;41.90;;;;;;485234;246;1165;-74
2022/11/10 04:10:39;;;;;;;;;;;24.40;41.90;;;;;;485101;246;1172;-74
2022/11/10 04:17:19;;;;;;;;;;;24.30;42.10;;;;;;485119;246;1246;-74
2022/11/10 04:19:20;;;;;;;;;;;24.30;42.00;;;;;;485033;246;1135;-74
2022/11/10 04:21:22;;;;;;;;;;;24.30;42.00;;;;;;485127;246;2179;-74
2022/11/10 04:23:26;;;;;;;;;;;24.20;42.10;;;;;;485100;246;1134;-74
2022/11/10 04:25:27;;;;;;;;;;;24.20;42.20;;;;;;485210;246;1186;-74
2022/11/10 04:27:29;;;;;;;;;;;24.30;42.20;;;;;;485197;246;1099;-74
2022/11/10 04:29:30;;;;;;;;;;;24.20;42.20;;;;;;485235;246;1185;-74
2022/11/10 04:31:31;;;;;;;;;;;24.10;42.20;;;;;;485197;246;1155;-74
2022/11/10 04:33:33;;;;;;;;;;;24.20;42.20;;;;;;485142;246;1250;-74
2022/11/10 04:35:34;;;;;;;;;;;24.20;42.20;;;;;;485209;246;1313;-74
2022/11/10 04:37:35;;;;;;;;;;;24.20;42.20;;;;;;485122;246;1136;-74
2022/11/10 04:39:37;;;;;;;;;;;24.30;42.10;;;;;;485113;246;1205;-74
2022/11/10 04:41:38;;;;;;;;;;;24.20;42.00;;;;;;485251;246;2203;-74
2022/11/10 04:43:39;;;;;;;;;;;24.30;42.00;;;;;;485071;246;1193;-74
2022/11/10 04:45:41;;;;;;;;;;;24.20;42.10;;;;;;485053;246;1151;-74
2022/11/10 04:47:42;;;;;;;;;;;24.20;42.00;;;;;;485177;246;1165;-74
2022/11/10 04:49:43;;;;;;;;;;;24.30;42.00;;;;;;485004;246;1211;-74
2022/11/10 04:51:45;;;;;;;;;;;24.20;42.00;;;;;;485200;243;1320;-74
2022/11/10 04:53:46;;;;;;;;;;;24.20;42.10;;;;;;485101;246;1224;-74
2022/11/10 04:55:47;;;;;;;;;;;24.20;42.10;;;;;;485114;246;1173;-74
2022/11/10 04:57:49;;;;;;;;;;;24.20;42.10;;;;;;485094;246;1256;-74
2022/11/10 04:59:50;;;;;;;;;;;24.30;41.90;;;;;;485147;246;1199;-74
2022/11/10 05:01:51;;;;;;;;;;;24.20;42.00;;;;;;485060;246;2131;-74
2022/11/10 05:03:53;;;;;;;;;;;24.20;42.00;;;;;;485202;246;1213;-74
2022/11/10 05:05:54;;;;;;;;;;;24.10;42.10;;;;;;485164;246;1268;-74
2022/11/10 05:07:55;;;;;;;;;;;24.10;42.10;;;;;;485178;246;1174;-74
2022/11/10 05:09:56;;;;;;;;;;;24.10;42.10;;;;;;485131;246;1179;-75
2022/11/10 05:11:58;;;;;;;;;;;24.10;42.20;;;;;;485180;246;1124;-74
2022/11/10 05:13:59;;;;;;;;;;;24.00;42.30;;;;;;485062;246;1090;-74
2022/11/10 05:16:00;;;;;;;;;;;23.90;42.40;;;;;;485092;246;1263;-74
2022/11/10 05:18:02;;;;;;;;;;;23.90;42.40;;;;;;485172;246;1206;-74
2022/11/10 05:20:03;;;;;;;;;;;23.90;42.40;;;;;;484979;246;2148;-74
2022/11/10 05:22:06;;;;;;;;;;;23.90;42.40;;;;;;485075;246;1189;-74
2022/11/10 05:24:06;;;;;;;;;;;23.90;42.50;;;;;;484997;246;1503;-74
2022/11/10 05:26:08;;;;;;;;;;;23.90;42.60;;;;;;485100;246;1151;-75
2022/11/10 05:28:09;;;;;;;;;;;23.80;42.70;;;;;;485085;246;1118;-74
2022/11/10 05:30:10;;;;;;;;;;;23.80;42.60;;;;;;485195;246;1305;-74
2022/11/10 05:32:12;;;;;;;;;;;23.70;42.50;;;;;;485113;246;1224;-74
2022/11/10 05:34:13;;;;;;;;;;;23.80;42.60;;;;;;485094;246;1256;-74
2022/11/10 05:36:15;;;;;;;;;;;23.70;42.60;;;;;;485196;246;1180;-74
2022/11/10 05:38:16;;;;;;;;;;;23.80;42.50;;;;;;485117;246;1132;-74
2022/11/10 05:40:17;;;;;;;;;;;23.90;42.60;;;;;;485205;246;2199;-74
2022/11/10 05:42:19;;;;;;;;;;;23.70;42.60;;;;;;485170;246;1146;-74
2022/11/10 05:44:20;;;;;;;;;;;23.70;42.60;;;;;;485078;246;1249;-74
2022/11/10 05:46:22;;;;;;;;;;;23.70;42.70;;;;;;485113;246;1130;-74
2022/11/10 05:48:23;;;;;;;;;;;23.70;42.70;;;;;;485099;246;1183;-74
2022/11/10 05:50:24;;;;;;;;;;;23.70;42.70;;;;;;485043;244;1194;-74
2022/11/10 05:52:26;;;;;;;;;;;23.70;42.70;;;;;;485083;246;1138;-74
2022/11/10 05:54:27;;;;;;;;;;;23.60;42.70;;;;;;485055;246;1206;-74
2022/11/10 05:56:28;;;;;;;;;;;23.70;42.70;;;;;;485161;246;1127;-74
2022/11/10 05:58:30;;;;;;;;;;;23.70;42.60;;;;;;485089;246;1144;-74
2022/11/10 06:00:31;;;;;;;;;;;23.80;42.60;;;;;;485036;246;2194;-74
2022/11/10 06:02:32;;;;;;;;;;;23.70;42.70;;;;;;485050;246;1364;-74
2022/11/10 06:04:34;;;;;;;;;;;23.70;42.70;;;;;;484975;246;1231;-74
2022/11/10 06:06:35;;;;;;;;;;;23.60;42.70;;;;;;485094;246;1073;-74
2022/11/10 06:08:36;;;;;;;;;;;23.60;42.70;;;;;;485086;246;1221;-74
2022/11/10 06:10:38;;;;;;;;;;;23.70;42.70;;;;;;485046;246;1142;-74
2022/11/10 06:12:39;;;;;;;;;;;23.70;42.70;;;;;;485127;246;1159;-74
2022/11/10 06:14:40;;;;;;;;;;;23.60;42.70;;;;;;485078;242;1150;-74
2022/11/10 06:16:42;;;;;;;;;;;23.70;42.70;;;;;;485105;246;1114;-74
2022/11/10 06:18:43;;;;;;;;;;;23.70;42.60;;;;;;484938;246;1138;-74
2022/11/10 06:20:44;;;;;;;;;;;23.60;42.60;;;;;;484809;246;2204;-74
2022/11/10 06:22:45;;;;;;;;;;;23.60;42.60;;;;;;485027;246;1194;-74
2022/11/10 06:24:47;;;;;;;;;;;23.70;42.70;;;;;;484926;246;1193;-74
2022/11/10 06:26:48;;;;;;;;;;;23.70;42.70;;;;;;485127;246;1201;-74
2022/11/10 06:28:50;;;;;;;;;;;23.70;42.70;;;;;;485061;246;1207;-74
2022/11/10 06:30:51;;;;;;;;;;;23.60;42.60;;;;;;485147;246;1215;-74
2022/11/10 06:32:52;;;;;;;;;;;23.70;42.50;;;;;;484954;246;1147;-74
2022/11/10 06:34:53;;;;;;;;;;;23.70;42.50;;;;;;485087;246;1201;-74
2022/11/10 06:36:55;;;;;;;;;;;23.70;42.50;;;;;;485097;246;1128;-74
2022/11/10 06:38:56;;;;;;;;;;;23.70;42.50;;;;;;484995;246;1202;-74
2022/11/10 06:40:57;;;;;;;;;;;23.80;42.50;;;;;;485112;246;2247;-74
2022/11/10 06:42:59;;;;;;;;;;;23.70;42.50;;;;;;485091;246;1326;-74
2022/11/10 06:45:00;;;;;;;;;;;23.70;42.40;;;;;;484955;246;1201;-74
2022/11/10 06:47:01;;;;;;;;;;;23.60;42.50;;;;;;485133;246;1192;-74
2022/11/10 06:49:03;;;;;;;;;;;23.70;42.50;;;;;;485023;246;1347;-74
2022/11/10 06:51:04;;;;;;;;;;;23.60;42.60;;;;;;484971;246;1117;-74
2022/11/10 06:53:05;;;;;;;;;;;23.60;42.60;;;;;;485084;246;1157;-74
2022/11/10 06:55:07;;;;;;;;;;;23.60;42.70;;;;;;484975;246;1296;-74
2022/11/10 06:57:08;;;;;;;;;;;23.60;42.70;;;;;;484969;246;1189;-73
2022/11/10 06:59:09;;;;;;;;;;;23.60;42.60;;;;;;485186;246;1170;-74
2022/11/10 07:01:11;;;;;;;;;;;23.60;42.70;;;;;;485106;246;2195;-74
2022/11/10 07:03:12;;;;;;;;;;;23.50;42.70;;;;;;485053;246;1221;-74
2022/11/10 07:05:14;;;;;;;;;;;23.50;42.70;;;;;;485095;246;1042;-74
2022/11/10 07:07:16;;;;;;;;;;;23.50;42.70;;;;;;485196;246;1164;-74
2022/11/10 07:09:17;;;;;;;;;;;23.50;42.70;;;;;;485051;246;1050;-74
2022/11/10 07:11:18;;;;;;;;;;;23.40;42.70;;;;;;485071;246;1242;-74
2022/11/10 07:13:20;;;;;;;;;;;23.50;42.80;;;;;;485113;246;1116;-74
2022/11/10 07:15:21;;;;;;;;;;;23.50;42.80;;;;;;485014;246;1076;-74
2022/11/10 07:17:23;;;;;;;;;;;23.50;42.70;;;;;;485158;246;1160;-74
2022/11/10 07:19:24;;;;;;;;;;;23.50;42.80;;;;;;485037;246;1094;-74
2022/11/10 07:21:25;;;;;;;;;;;23.50;42.70;;;;;;484749;246;2203;-73
2022/11/10 07:23:26;;;;;;;;;;;23.50;42.60;;;;;;484868;246;1071;-73
2022/11/10 07:25:28;;;;;;;;;;;23.50;42.50;;;;;;484951;246;1118;-73
2022/11/10 07:27:29;;;;;;;;;;;23.50;42.50;;;;;;484515;246;1235;-73
2022/11/10 07:29:30;;;;;;;;;;;23.50;42.50;;;;;;484872;246;1194;-74
2022/11/10 07:31:32;;;;;;;;;;;23.50;42.60;;;;;;485013;246;1129;-74
2022/11/10 07:33:33;;;;;;;;;;;23.60;42.50;;;;;;484986;246;1267;-74
2022/11/10 07:35:34;;;;;;;;;;;23.60;42.30;;;;;;485036;246;1169;-74
2022/11/10 07:37:36;;;;;;;;;;;23.70;42.30;;;;;;484994;246;1190;-74
2022/11/10 07:39:37;;;;;;;;;;;23.70;42.20;;;;;;484813;246;1237;-74
2022/11/10 07:41:38;;;;;;;;;;;23.70;42.10;;;;;;484845;246;2191;-74
2022/11/10 07:43:39;;;;;;;;;;;23.70;42.20;;;;;;484898;246;1084;-74
2022/11/10 07:45:41;;;;;;;;;;;23.70;42.10;;;;;;484838;246;1170;-74
2022/11/10 07:47:42;;;;;;;;;;;23.80;42.10;;;;;;484817;246;1181;-74
2022/11/10 07:49:43;;;;;;;;;;;23.80;42.00;;;;;;484704;246;1190;-74
2022/11/10 07:51:45;;;;;;;;;;;23.90;42.00;;;;;;484627;246;1123;-73
2022/11/10 07:53:46;;;;;;;;;;;23.90;41.90;;;;;;484629;246;1248;-73
2022/11/10 07:55:47;;;;;;;;;;;23.80;42.00;;;;;;484665;246;1194;-74
2022/11/10 07:57:49;;;;;;;;;;;23.70;42.20;;;;;;484707;246;1170;-74
2022/11/10 07:59:50;;;;;;;;;;;23.70;42.40;;;;;;484736;246;1178;-74
2022/11/10 08:01:51;;;;;;;;;;;23.70;42.40;;;;;;484245;246;2191;-74
2022/11/10 08:03:53;;;;;;;;;;;23.80;42.30;;;;;;484525;243;1178;-74
2022/11/10 08:05:54;;;;;;;;;;;23.80;42.20;;;;;;484203;246;1323;-74
2022/11/10 08:07:55;;;;;;;;;;;23.80;42.10;;;;;;484418;246;1182;-74
2022/11/10 08:09:57;;;;;;;;;;;23.90;42.30;;;;;;484502;246;1106;-73
2022/11/10 08:11:58;;;;;;;;;;;23.80;42.20;;;;;;484662;246;1128;-73
2022/11/10 08:13:59;;;;;;;;;;;23.80;42.30;;;;;;484624;246;1160;-73
2022/11/10 08:16:02;;;;;;;;;;;23.80;42.30;;;;;;484584;246;1179;-73
2022/11/10 08:18:02;;;;;;;;;;;23.90;42.40;;;;;;484495;246;1670;-73
2022/11/10 08:20:04;;;;;;;;;;;23.90;42.30;;;;;;484669;246;1132;-73
2022/11/10 08:22:05;;;;;;;;;;;24.00;42.30;;;;;;484499;246;2176;-73
2022/11/10 08:24:06;;;;;;;;;;;23.90;42.20;;;;;;484629;246;1073;-74
2022/11/10 08:26:07;;;;;;;;;;;24.00;42.30;;;;;;484706;246;1134;-74
2022/11/10 08:28:09;;;;;;;;;;;24.00;42.30;;;;;;484759;246;1065;-74
2022/11/10 08:30:10;;;;;;;;;;;24.00;42.40;;;;;;484659;246;1221;-73
2022/11/10 08:32:12;;;;;;;;;;;24.00;42.20;;;;;;484610;246;1152;-74
2022/11/10 08:34:13;;;;;;;;;;;24.10;42.00;;;;;;484538;246;1176;-74
2022/11/10 08:36:14;;;;;;;;;;;24.20;42.00;;;;;;484178;246;1143;-73
2022/11/10 08:38:16;;;;;;;;;;;24.20;42.00;;;;;;484021;243;1294;-73
2022/11/10 08:40:18;;;;;;;;;;;24.20;42.00;;;;;;484002;242;1207;-73
2022/11/10 08:42:19;;;;;;;;;;;24.10;42.10;;;;;;484124;246;2177;-74
2022/11/10 08:44:20;;;;;;;;;;;24.10;42.10;;;;;;484033;246;1253;-74
2022/11/10 08:46:22;;;;;;;;;;;24.10;42.20;;;;;;484011;246;1262;-74
2022/11/10 08:48:23;;;;;;;;;;;24.20;42.20;;;;;;484702;244;1158;-74
2022/11/10 08:50:24;;;;;;;;;;;24.10;42.20;;;;;;483932;246;1348;-74
2022/11/10 08:52:25;;;;;;;;;;;24.20;42.20;;;;;;484420;246;1067;-74
2022/11/10 08:54:27;;;;;;;;;;;24.10;42.20;;;;;;484624;246;1162;-74
2022/11/10 08:56:29;;;;;;;;;;;24.10;42.20;;;;;;484297;246;1257;-74
2022/11/10 08:58:30;;;;;;;;;;;24.10;42.20;;;;;;484323;246;1160;-74
2022/11/10 09:00:31;;;;;;;;;;;24.10;42.40;;;;;;484616;246;1288;-74
2022/11/10 09:02:32;;;;;;;;;;;24.10;42.50;;;;;;484380;246;2171;-74
2022/11/10 09:04:33;;;;;;;;;;;24.00;42.50;;;;;;484545;246;1214;-74
2022/11/10 09:06:35;;;;;;;;;;;24.10;42.50;;;;;;484438;246;1226;-74
2022/11/10 09:08:37;;;;;;;;;;;24.00;42.60;;;;;;484448;246;1190;-74
2022/11/10 09:10:37;;;;;;;;;;;24.00;42.70;;;;;;483743;246;1332;-74
2022/11/10 09:12:39;;;;;;;;;;;24.00;42.60;;;;;;484095;246;1178;-74
2022/11/10 09:14:40;;;;;;;;;;;24.10;42.70;;;;;;483959;246;1226;-73
2022/11/10 09:16:41;;;;;;;;;;;24.00;42.70;;;;;;484141;246;1110;-73
2022/11/10 09:18:43;;;;;;;;;;;24.00;42.80;;;;;;484313;246;1101;-73
2022/11/10 09:20:44;;;;;;;;;;;24.00;42.70;;;;;;484491;246;1176;-74
2022/11/10 09:22:45;;;;;;;;;;;24.00;42.70;;;;;;484458;246;2191;-74
2022/11/10 09:24:47;;;;;;;;;;;24.00;42.70;;;;;;484372;246;1172;-74
2022/11/10 09:26:48;;;;;;;;;;;24.00;42.70;;;;;;484841;246;1273;-74
2022/11/10 09:28:49;;;;;;;;;;;24.00;42.70;;;;;;484490;246;1143;-74
2022/11/10 09:30:51;;;;;;;;;;;24.00;42.70;;;;;;484540;246;1172;-74
2022/11/10 09:32:52;;;;;;;;;;;24.00;42.70;;;;;;484754;246;1220;-74
2022/11/10 09:34:53;;;;;;;;;;;24.00;42.70;;;;;;484376;246;1218;-74
2022/11/10 09:36:55;;;;;;;;;;;24.00;42.70;;;;;;484670;246;1192;-74
2022/11/10 09:38:56;;;;;;;;;;;24.00;42.60;;;;;;484550;246;1370;-74
2022/11/10 09:40:57;;;;;;;;;;;24.10;42.70;;;;;;484809;246;1174;-74
2022/11/10 09:42:59;;;;;;;;;;;24.00;42.70;;;;;;484627;246;2204;-74
2022/11/10 09:45:00;;;;;;;;;;;24.00;42.70;;;;;;484391;246;1203;-74
2022/11/10 09:47:01;;;;;;;;;;;23.90;42.80;;;;;;484727;246;1153;-74
2022/11/10 09:49:03;;;;;;;;;;;23.90;42.90;;;;;;484918;246;1167;-74
2022/11/10 09:51:04;;;;;;;;;;;23.90;42.90;;;;;;484608;246;1516;-74
2022/11/10 09:53:05;;;;;;;;;;;23.90;42.80;;;;;;484787;246;1227;-74
2022/11/10 09:55:07;;;;;;;;;;;23.80;42.90;;;;;;484497;246;1243;-74
2022/11/10 09:57:08;;;;;;;;;;;23.80;42.90;;;;;;484585;246;1153;-74
2022/11/10 09:59:09;;;;;;;;;;;23.90;43.00;;;;;;484649;246;1200;-74
2022/11/10 10:01:11;;;;;;;;;;;23.90;42.80;;;;;;484575;246;1039;-74
2022/11/10 10:03:12;;;;;;;;;;;23.90;42.80;;;;;;484495;246;2188;-74
2022/11/10 10:05:13;;;;;;;;;;;23.90;42.80;;;;;;484470;246;1130;-74
2022/11/10 10:07:15;;;;;;;;;;;23.90;42.70;;;;;;484522;246;1090;-74
2022/11/10 10:09:16;;;;;;;;;;;23.90;42.70;;;;;;484479;246;1165;-73
2022/11/10 10:11:17;;;;;;;;;;;23.90;42.60;;;;;;484423;246;1085;-73
2022/11/10 10:13:19;;;;;;;;;;;23.90;42.60;;;;;;484513;246;1072;-74
2022/11/10 10:15:20;;;;;;;;;;;23.90;42.60;;;;;;484573;246;1236;-74
2022/11/10 10:17:22;;;;;;;;;;;23.90;42.50;;;;;;484505;246;1104;-74
2022/11/10 10:19:23;;;;;;;;;;;23.90;42.40;;;;;;484406;246;1098;-74
2022/11/10 10:21:24;;;;;;;;;;;23.90;42.50;;;;;;484494;246;1170;-74
2022/11/10 10:23:25;;;;;;;;;;;23.90;42.50;;;;;;484741;246;2120;-74
2022/11/10 10:25:27;;;;;;;;;;;23.80;42.60;;;;;;484694;246;1205;-74
2022/11/10 10:27:28;;;;;;;;;;;23.80;42.50;;;;;;484416;246;1189;-74
2022/11/10 10:29:29;;;;;;;;;;;23.90;42.30;;;;;;484671;246;1183;-74
2022/11/10 10:31:31;;;;;;;;;;;24.00;42.10;;;;;;484684;246;1175;-74
2022/11/10 10:33:32;;;;;;;;;;;24.00;42.00;;;;;;484548;246;1182;-74
2022/11/10 10:35:33;;;;;;;;;;;24.00;41.80;;;;;;484433;246;1161;-74
2022/11/10 10:37:35;;;;;;;;;;;24.00;41.80;;;;;;484613;246;1319;-74
2022/11/10 10:39:36;;;;;;;;;;;24.00;41.80;;;;;;484474;246;1162;-74
2022/11/10 10:41:37;;;;;;;;;;;24.00;41.70;;;;;;484579;246;1142;-74
2022/11/10 10:43:39;;;;;;;;;;;24.00;41.70;;;;;;484646;246;2255;-74
2022/11/10 10:45:41;;;;;;;;;;;24.00;41.80;;;;;;484144;246;1203;-74
2022/11/10 10:47:42;;;;;;;;;;;24.00;41.60;;;;;;484240;246;1250;-73
2022/11/10 10:49:43;;;;;;;;;;;24.00;41.50;;;;;;484429;246;1185;-73
2022/11/10 10:51:44;;;;;;;;;;;24.00;41.60;;;;;;484161;246;1148;-73
2022/11/10 10:53:46;;;;;;;;;;;24.00;41.50;;;;;;484694;246;1185;-73
2022/11/10 10:55:47;;;;;;;;;;;24.00;41.50;;;;;;484588;244;1304;-73
2022/11/10 10:57:49;;;;;;;;;;;24.00;41.50;;;;;;484498;246;1215;-73
2022/11/10 10:59:50;;;;;;;;;;;24.00;41.40;;;;;;484273;244;1202;-74
2022/11/10 11:01:51;;;;;;;;;;;24.00;41.40;;;;;;484343;244;1255;-74
2022/11/10 11:03:53;;;;;;;;;;;24.00;41.30;;;;;;484674;246;2156;-73
2022/11/10 11:05:54;;;;;;;;;;;24.00;41.50;;;;;;484647;244;1180;-73
2022/11/10 11:07:55;;;;;;;;;;;24.00;41.40;;;;;;484737;246;1097;-73
2022/11/10 11:09:57;;;;;;;;;;;24.00;41.50;;;;;;484674;246;1258;-73
2022/11/10 11:11:58;;;;;;;;;;;24.10;41.30;;;;;;484809;244;1186;-74
2022/11/10 11:13:59;;;;;;;;;;;24.00;41.20;;;;;;484700;246;1193;-73
2022/11/10 11:16:01;;;;;;;;;;;24.00;41.30;;;;;;484808;246;1106;-73
2022/11/10 11:18:02;;;;;;;;;;;24.10;41.20;;;;;;484698;246;1165;-73
2022/11/10 11:20:03;;;;;;;;;;;24.10;41.20;;;;;;484631;244;1631;-74
2022/11/10 11:22:05;;;;;;;;;;;24.10;41.20;;;;;;484630;246;1180;-74
2022/11/10 11:24:06;;;;;;;;;;;24.20;41.10;;;;;;484691;246;2195;-74
2022/11/10 11:26:09;;;;;;;;;;;24.10;41.10;;;;;;484677;246;1236;-74
2022/11/10 11:28:09;;;;;;;;;;;24.10;40.80;;;;;;484389;246;1835;-74
2022/11/10 11:30:10;;;;;;;;;;;24.20;40.90;;;;;;484719;246;1121;-74
2022/11/10 11:32:11;;;;;;;;;;;24.20;40.80;;;;;;484801;246;1381;-74
2022/11/10 11:34:12;;;;;;;;;;;24.20;40.80;;;;;;484735;246;1133;-74
2022/11/10 11:36:14;;;;;;;;;;;24.20;40.80;;;;;;484579;246;1111;-74
2022/11/10 11:38:15;;;;;;;;;;;24.20;40.70;;;;;;484570;246;1076;-73
2022/11/10 11:40:16;;;;;;;;;;;24.10;40.70;;;;;;484744;246;1137;-74
2022/11/10 11:42:18;;;;;;;;;;;24.10;40.70;;;;;;484461;246;1193;-73
2022/11/10 11:44:19;;;;;;;;;;;24.10;40.70;;;;;;484599;246;1206;-74
2022/11/10 11:46:21;;;;;;;;;;;24.10;40.70;;;;;;484741;246;1168;-74
2022/11/10 11:48:22;;;;;;;;;;;24.00;40.70;;;;;;484584;244;1066;-74
2022/11/10 11:50:23;;;;;;;;;;;24.00;40.90;;;;;;484968;246;1130;-74
2022/11/10 11:52:25;;;;;;;;;;;24.00;40.80;;;;;;484641;246;1340;-74
2022/11/10 11:54:26;;;;;;;;;;;24.00;40.80;;;;;;484555;246;1174;-73
2022/11/10 11:56:28;;;;;;;;;;;24.00;40.70;;;;;;484682;243;1192;-73
2022/11/10 11:58:29;;;;;;;;;;;24.00;40.80;;;;;;484806;246;1124;-74
2022/11/10 12:00:30;;;;;;;;;;;24.00;40.60;;;;;;484625;246;1090;-74
2022/11/10 12:02:32;;;;;;;;;;;24.00;40.60;;;;;;484464;246;2175;-74
2022/11/10 12:04:33;;;;;;;;;;;24.00;40.50;;;;;;484535;246;1057;-74
2022/11/10 12:06:34;;;;;;;;;;;24.10;40.40;;;;;;484472;242;1168;-74
2022/11/10 12:08:36;;;;;;;;;;;24.00;40.30;;;;;;484459;246;1129;-74